Time;durP1;ratioP1;P1;durP2;ratioP2;P2;SDS_P1;SDS_P2;PMS_P1;PMS_P2;Temp;Humidity;BMP_temperature;BMP_pressure;BME280_temperature;BME280_humidity;BME280_pressure;Samples;Min_cycle;Max_cycle;Signal;HPM_P1;HPM_P2
2023/06/30 00:02:06;;;;;;;13.98;4.20;;;14.10;99.90;;;;;;5079838;28;20080;-57
2023/06/30 00:04:32;;;;;;;10.18;3.83;;;13.90;99.90;;;;;;5078569;28;20499;-56
2023/06/30 00:06:59;;;;;;;9.45;3.90;;;13.80;99.90;;;;;;5079639;28;20431;-57
2023/06/30 00:09:25;;;;;;;10.63;4.07;;;13.80;99.90;;;;;;5079465;28;20044;-57
2023/06/30 00:11:53;;;;;;;11.75;4.03;;;13.70;99.90;;;;;;5079205;28;20032;-56
2023/06/30 00:14:19;;;;;;;9.65;3.75;;;13.70;99.90;;;;;;5079996;28;20051;-57
2023/06/30 00:16:45;;;;;;;9.50;3.75;;;13.70;99.90;;;;;;5078512;28;20045;-57
2023/06/30 00:19:11;;;;;;;8.45;3.38;;;13.70;99.90;;;;;;5079750;28;20060;-57
2023/06/30 00:21:41;;;;;;;9.35;4.13;;;13.70;99.90;;;;;;5078217;28;20033;-57
2023/06/30 00:24:13;;;;;;;11.23;3.63;;;13.70;99.90;;;;;;5079303;28;20056;-57
2023/06/30 00:26:39;;;;;;;8.80;3.55;;;13.60;99.90;;;;;;5078994;28;20067;-57
2023/06/30 00:29:05;;;;;;;8.18;3.70;;;13.60;99.90;;;;;;5078451;28;20053;-57
2023/06/30 00:31:31;;;;;;;9.63;3.67;;;13.60;99.90;;;;;;5078413;28;20040;-57
2023/06/30 00:33:57;;;;;;;11.45;3.67;;;13.50;99.90;;;;;;5078062;28;20056;-58
2023/06/30 00:36:23;;;;;;;12.98;4.10;;;13.60;99.90;;;;;;5079423;28;20070;-57
2023/06/30 00:38:51;;;;;;;8.65;3.60;;;13.50;99.90;;;;;;5077930;28;20728;-58
2023/06/30 00:41:17;;;;;;;10.13;3.60;;;13.40;99.90;;;;;;5079122;28;20045;-58
2023/06/30 00:43:43;;;;;;;11.27;3.75;;;13.30;99.90;;;;;;5078398;28;20037;-57
2023/06/30 00:46:13;;;;;;;13.70;4.32;;;13.10;99.90;;;;;;5078397;28;20071;-56
2023/06/30 00:48:39;;;;;;;9.20;4.05;;;13.10;99.90;;;;;;5079133;28;20056;-57
2023/06/30 00:51:05;;;;;;;10.10;3.55;;;13.20;99.90;;;;;;5077865;28;20052;-57
2023/06/30 00:53:31;;;;;;;9.00;3.70;;;13.20;99.90;;;;;;5070308;28;20044;-57
2023/06/30 00:55:57;;;;;;;10.90;3.72;;;13.10;99.90;;;;;;5073131;28;20059;-57
2023/06/30 00:58:23;;;;;;;12.35;4.70;;;13.30;99.90;;;;;;5058674;28;20051;-57
2023/06/30 01:00:54;;;;;;;8.90;3.58;;;13.30;99.90;;;;;;5057804;28;20045;-56
2023/06/30 01:03:33;;;;;;;8.97;3.60;;;13.40;99.90;;;;;;5058388;28;20073;-57
2023/06/30 01:06:20;;;;;;;11.02;4.40;;;13.30;99.90;;;;;;5058949;28;20041;-56
2023/06/30 01:09:03;;;;;;;9.07;3.72;;;13.40;99.90;;;;;;5056955;28;20044;-57
2023/06/30 01:11:32;;;;;;;11.57;3.58;;;13.40;99.90;;;;;;5058580;28;20049;-57
2023/06/30 01:13:58;;;;;;;8.85;3.40;;;13.30;99.90;;;;;;5058593;28;20045;-57
2023/06/30 01:16:26;;;;;;;9.55;3.78;;;13.30;99.90;;;;;;5057813;28;20045;-57
2023/06/30 01:18:54;;;;;;;8.80;3.78;;;13.30;99.90;;;;;;5058973;28;20399;-56
2023/06/30 01:21:23;;;;;;;10.35;3.65;;;13.20;99.90;;;;;;5056759;28;20045;-57
2023/06/30 01:23:58;;;;;;;10.88;3.78;;;13.20;99.90;;;;;;5058651;28;20048;-57
2023/06/30 01:26:24;;;;;;;8.32;3.70;;;13.30;99.90;;;;;;5057489;28;20610;-57
2023/06/30 01:28:50;;;;;;;11.40;4.78;;;13.20;99.90;;;;;;5058123;28;20037;-57
2023/06/30 01:31:20;;;;;;;8.60;3.80;;;13.00;99.90;;;;;;5058510;28;20079;-57
2023/06/30 01:33:46;;;;;;;12.73;3.80;;;13.00;99.90;;;;;;5057070;28;20041;-57
2023/06/30 01:36:12;;;;;;;10.65;3.55;;;13.00;99.90;;;;;;5058444;28;20071;-57
2023/06/30 01:38:38;;;;;;;8.45;3.50;;;13.00;99.90;;;;;;5056772;28;20037;-57
2023/06/30 01:41:07;;;;;;;10.25;3.95;;;13.10;99.90;;;;;;5058183;28;20109;-56
2023/06/30 01:43:33;;;;;;;11.65;3.97;;;12.90;99.90;;;;;;5055879;28;20045;-57
2023/06/30 01:45:59;;;;;;;11.20;4.22;;;12.80;99.90;;;;;;5056475;28;20056;-57
2023/06/30 01:48:26;;;;;;;11.02;3.88;;;12.70;99.90;;;;;;5058161;28;20041;-57
2023/06/30 01:50:53;;;;;;;11.25;4.00;;;12.60;99.90;;;;;;5057084;28;20055;-57
2023/06/30 01:53:19;;;;;;;14.13;4.20;;;12.60;99.90;;;;;;5058503;28;20048;-57
2023/06/30 01:55:48;;;;;;;15.05;3.58;;;12.60;99.90;;;;;;5056968;28;20084;-57
2023/06/30 01:58:16;;;;;;;11.85;4.57;;;12.50;99.90;;;;;;5058344;28;20884;-57
2023/06/30 02:00:41;;;;;;;13.40;4.03;;;12.60;99.90;;;;;;5056958;28;20519;-57
2023/06/30 02:03:07;;;;;;;11.27;4.18;;;12.60;99.90;;;;;;5057658;28;20057;-57
2023/06/30 02:05:33;;;;;;;13.05;4.20;;;12.60;99.90;;;;;;5058021;28;20048;-56
2023/06/30 02:07:59;;;;;;;7.80;4.05;;;12.70;99.90;;;;;;5056832;28;20397;-56
2023/06/30 02:10:25;;;;;;;11.15;4.47;;;12.50;99.90;;;;;;5058499;28;20048;-57
2023/06/30 02:12:51;;;;;;;12.55;3.78;;;12.60;99.90;;;;;;5069807;28;20047;-57
2023/06/30 02:15:16;;;;;;;10.15;3.85;;;12.50;99.90;;;;;;5076541;28;20044;-56
2023/06/30 02:17:42;;;;;;;12.00;4.30;;;12.50;99.90;;;;;;5079593;28;20072;-57
2023/06/30 02:20:09;;;;;;;9.85;3.53;;;12.50;99.90;;;;;;5081606;28;20046;-56
2023/06/30 02:22:35;;;;;;;12.05;3.85;;;12.50;99.90;;;;;;5081622;28;20040;-56
2023/06/30 02:25:01;;;;;;;12.15;3.90;;;12.60;99.90;;;;;;5080582;28;20063;-55
2023/06/30 02:27:27;;;;;;;11.93;3.65;;;12.50;99.90;;;;;;5081760;28;20103;-56
2023/06/30 02:29:53;;;;;;;13.10;3.42;;;12.40;99.90;;;;;;5079935;28;20096;-57
2023/06/30 02:32:19;;;;;;;10.93;4.30;;;12.40;99.90;;;;;;5081817;28;20127;-56
2023/06/30 02:34:45;;;;;;;9.50;4.03;;;12.50;99.90;;;;;;5080582;28;20086;-56
2023/06/30 02:37:11;;;;;;;8.73;3.45;;;12.40;99.90;;;;;;5081391;28;20504;-57
2023/06/30 02:39:36;;;;;;;10.70;3.90;;;12.40;99.90;;;;;;5081457;28;20047;-56
2023/06/30 02:42:02;;;;;;;9.05;3.75;;;12.40;99.90;;;;;;5080452;28;20052;-57
2023/06/30 02:44:28;;;;;;;11.43;3.63;;;12.50;99.90;;;;;;5081527;28;20055;-57
2023/06/30 02:46:54;;;;;;;10.70;3.92;;;12.50;99.90;;;;;;5079766;28;20049;-57
2023/06/30 02:49:19;;;;;;;9.55;2.97;;;12.60;99.90;;;;;;5081687;28;20040;-57
2023/06/30 02:51:45;;;;;;;10.13;3.97;;;12.50;99.90;;;;;;5080083;28;20089;-57
2023/06/30 02:54:11;;;;;;;11.05;3.83;;;12.50;99.90;;;;;;5080892;28;20048;-57
2023/06/30 02:56:36;;;;;;;11.32;3.60;;;12.50;99.90;;;;;;5080683;28;20107;-58
2023/06/30 02:59:02;;;;;;;9.27;3.92;;;12.50;99.90;;;;;;5078598;28;20047;-57
2023/06/30 03:01:28;;;;;;;13.45;3.75;;;12.50;99.90;;;;;;5081022;28;20059;-57
2023/06/30 03:03:53;;;;;;;11.10;4.60;;;12.40;99.90;;;;;;5079953;28;20075;-56
2023/06/30 03:06:23;;;;;;;10.38;3.97;;;12.40;99.90;;;;;;5081240;28;20060;-57
2023/06/30 03:08:48;;;;;;;14.35;4.30;;;12.50;99.90;;;;;;5079712;28;20055;-57
2023/06/30 03:11:14;;;;;;;9.73;3.45;;;12.40;99.90;;;;;;5080943;28;20040;-57
2023/06/30 03:13:40;;;;;;;10.00;3.45;;;12.40;99.90;;;;;;5078646;28;20040;-57
2023/06/30 03:16:07;;;;;;;8.38;3.75;;;12.40;99.90;;;;;;5080289;28;20120;-57
2023/06/30 03:18:32;;;;;;;12.45;4.30;;;12.50;99.90;;;;;;5081124;28;20098;-57
2023/06/30 03:20:58;;;;;;;11.88;3.90;;;12.40;99.90;;;;;;5079634;28;20088;-57
2023/06/30 03:23:24;;;;;;;12.32;4.25;;;12.50;99.90;;;;;;5080651;28;20041;-57
2023/06/30 03:25:49;;;;;;;9.38;4.00;;;12.50;99.90;;;;;;5079383;28;20063;-57
2023/06/30 03:28:15;;;;;;;9.98;4.07;;;12.50;99.90;;;;;;5080549;28;20054;-58
2023/06/30 03:30:41;;;;;;;13.02;4.00;;;12.50;99.90;;;;;;5079994;28;20047;-57
2023/06/30 03:33:06;;;;;;;9.73;4.28;;;12.50;99.90;;;;;;5080236;28;20142;-57
2023/06/30 03:35:32;;;;;;;10.18;3.70;;;12.60;99.90;;;;;;5080405;28;20041;-56
2023/06/30 03:37:58;;;;;;;9.20;3.72;;;12.50;99.90;;;;;;5079149;28;20044;-57
2023/06/30 03:40:23;;;;;;;10.07;3.78;;;12.60;99.90;;;;;;5080483;28;20053;-57
2023/06/30 03:42:49;;;;;;;7.47;3.72;;;12.60;99.90;;;;;;5078849;28;20044;-57
2023/06/30 03:45:14;;;;;;;9.98;4.65;;;12.70;99.90;;;;;;5080379;28;20062;-57
2023/06/30 03:47:40;;;;;;;9.25;3.70;;;12.60;99.90;;;;;;5079298;28;20044;-57
2023/06/30 03:50:06;;;;;;;9.65;3.72;;;12.70;99.90;;;;;;5079937;28;20066;-57
2023/06/30 03:52:32;;;;;;;8.57;3.78;;;12.60;99.90;;;;;;5079831;28;20059;-56
2023/06/30 03:54:58;;;;;;;10.82;4.10;;;12.70;99.90;;;;;;5078762;28;20037;-56
2023/06/30 03:57:23;;;;;;;15.52;3.97;;;12.70;99.90;;;;;;5080220;28;20039;-56
2023/06/30 03:59:49;;;;;;;9.40;4.30;;;12.70;99.90;;;;;;5078580;28;20103;-57
2023/06/30 04:02:15;;;;;;;11.65;3.72;;;12.80;99.90;;;;;;5079955;28;20059;-56
2023/06/30 04:04:40;;;;;;;10.02;4.43;;;12.70;99.90;;;;;;5077355;28;20060;-57
2023/06/30 04:07:06;;;;;;;9.38;4.85;;;12.80;99.90;;;;;;5079505;28;20064;-57
2023/06/30 04:09:32;;;;;;;8.27;3.75;;;12.80;99.90;;;;;;5079467;28;20094;-56
2023/06/30 04:11:57;;;;;;;12.20;4.20;;;12.70;99.90;;;;;;5078970;28;20585;-57
2023/06/30 04:14:23;;;;;;;9.13;3.97;;;12.60;99.90;;;;;;5079979;28;20037;-57
2023/06/30 04:16:49;;;;;;;9.85;4.07;;;12.60;99.90;;;;;;5078302;28;20085;-57
2023/06/30 04:19:14;;;;;;;8.70;4.65;;;12.60;99.90;;;;;;5078470;28;20091;-57
2023/06/30 04:21:40;;;;;;;7.85;4.28;;;12.60;99.90;;;;;;5076868;28;20072;-57
2023/06/30 04:24:06;;;;;;;8.70;3.78;;;12.70;99.90;;;;;;5079546;28;20052;-57
2023/06/30 04:26:32;;;;;;;9.48;3.92;;;12.70;99.90;;;;;;5077425;28;20713;-57
2023/06/30 04:28:57;;;;;;;11.68;3.92;;;12.70;99.90;;;;;;5078946;28;20128;-56
2023/06/30 04:31:26;;;;;;;10.65;4.30;;;12.80;99.90;;;;;;5079591;28;20183;-57
2023/06/30 04:33:52;;;;;;;11.25;4.72;;;12.70;99.90;;;;;;5077916;28;20048;-57
2023/06/30 04:36:20;;;;;;;11.18;4.50;;;12.60;99.90;;;;;;5079057;28;20049;-57
2023/06/30 04:38:48;;;;;;;9.23;4.18;;;12.70;99.90;;;;;;5077708;28;20043;-56
2023/06/30 04:41:15;;;;;;;9.98;4.20;;;12.80;99.90;;;;;;5078894;28;20036;-57
2023/06/30 04:43:41;;;;;;;9.05;4.15;;;13.00;99.90;;;;;;5078558;28;20120;-55
2023/06/30 04:46:07;;;;;;;10.70;4.13;;;13.00;99.90;;;;;;5078291;28;20078;-57
2023/06/30 04:48:34;;;;;;;11.10;4.15;;;13.20;99.90;;;;;;5077905;28;20052;-56
2023/06/30 04:50:59;;;;;;;9.85;3.90;;;13.20;99.90;;;;;;5077608;28;20044;-57
2023/06/30 04:53:25;;;;;;;10.88;3.95;;;13.50;99.90;;;;;;5079359;28;20051;-57
2023/06/30 04:55:51;;;;;;;12.05;4.53;;;13.60;99.90;;;;;;5077152;28;20036;-57
2023/06/30 04:58:18;;;;;;;9.50;3.70;;;13.70;99.90;;;;;;5078857;28;20044;-57
2023/06/30 05:00:44;;;;;;;12.50;4.18;;;13.80;99.90;;;;;;5076496;28;20059;-56
2023/06/30 05:03:11;;;;;;;7.90;3.50;;;13.90;99.90;;;;;;5078343;28;20048;-57
2023/06/30 05:05:36;;;;;;;9.20;3.55;;;14.00;99.90;;;;;;5079109;28;20096;-56
2023/06/30 05:08:02;;;;;;;8.90;3.80;;;14.10;99.90;;;;;;5077185;28;20037;-57
2023/06/30 05:10:28;;;;;;;11.50;4.63;;;14.30;99.90;;;;;;5078936;28;20049;-57
2023/06/30 05:12:54;;;;;;;11.65;4.25;;;14.40;99.90;;;;;;5075736;28;20056;-57
2023/06/30 05:15:20;;;;;;;12.05;4.10;;;14.50;99.90;;;;;;5078608;28;20040;-57
2023/06/30 05:17:45;;;;;;;9.57;3.83;;;14.30;99.90;;;;;;5077910;28;20410;-56
2023/06/30 05:20:12;;;;;;;10.40;3.50;;;14.40;99.90;;;;;;5077894;28;20048;-55
2023/06/30 05:22:37;;;;;;;11.68;4.10;;;14.30;99.90;;;;;;5076872;28;20045;-57
2023/06/30 05:25:03;;;;;;;8.18;3.35;;;14.20;99.90;;;;;;5076840;28;20059;-56
2023/06/30 05:27:29;;;;;;;10.00;4.00;;;14.40;99.90;;;;;;5078740;28;20522;-56
2023/06/30 05:29:55;;;;;;;12.77;5.05;;;14.40;99.90;;;;;;5075536;28;20500;-56
2023/06/30 05:32:22;;;;;;;9.85;3.97;;;14.50;99.90;;;;;;5078477;28;20051;-57
2023/06/30 05:34:50;;;;;;;11.65;4.38;;;14.50;99.90;;;;;;5077490;28;20051;-55
2023/06/30 05:37:16;;;;;;;9.30;4.03;;;14.50;99.90;;;;;;5074530;28;20657;-56
2023/06/30 05:39:41;;;;;;;9.40;3.55;;;14.40;99.90;;;;;;5074728;28;20049;-55
2023/06/30 05:42:07;;;;;;;6.50;3.50;;;14.50;99.90;;;;;;5073883;28;20036;-56
2023/06/30 05:44:33;;;;;;;11.02;4.07;;;14.70;99.90;;;;;;5075091;28;20059;-56
2023/06/30 05:46:59;;;;;;;9.35;3.53;;;14.80;99.90;;;;;;5073455;28;20043;-57
2023/06/30 05:49:25;;;;;;;10.57;4.32;;;15.00;99.90;;;;;;5074865;28;20104;-56
2023/06/30 05:51:51;;;;;;;11.80;3.78;;;15.00;99.90;;;;;;5075425;28;20131;-55
2023/06/30 05:54:16;;;;;;;10.98;3.80;;;15.10;99.90;;;;;;5078901;28;20087;-56
2023/06/30 05:56:42;;;;;;;9.45;3.90;;;15.30;99.90;;;;;;5078990;28;20049;-56
2023/06/30 05:59:10;;;;;;;10.57;3.45;;;15.40;99.90;;;;;;5078043;28;20071;-56
2023/06/30 06:01:38;;;;;;;9.32;3.92;;;15.60;99.90;;;;;;5078436;28;20068;-55
2023/06/30 06:04:08;;;;;;;11.30;3.13;;;15.70;99.90;;;;;;5073878;28;20049;-55
2023/06/30 06:06:34;;;;;;;12.63;3.58;;;15.80;99.90;;;;;;5067231;28;20041;-56
2023/06/30 06:08:59;;;;;;;9.40;2.90;;;15.80;99.90;;;;;;5056478;28;20428;-55
2023/06/30 06:11:25;;;;;;;10.05;3.40;;;16.00;99.90;;;;;;5058232;28;20118;-57
2023/06/30 06:13:51;;;;;;;7.30;2.90;;;16.10;99.90;;;;;;5058386;28;20106;-57
2023/06/30 06:16:16;;;;;;;7.82;2.33;;;16.00;99.90;;;;;;5057766;28;20055;-56
2023/06/30 06:18:42;;;;;;;10.68;2.55;;;16.20;99.90;;;;;;5058869;28;20037;-54
2023/06/30 06:21:08;;;;;;;9.85;2.17;;;16.30;99.90;;;;;;5056876;28;20041;-56
2023/06/30 06:23:33;;;;;;;9.63;2.38;;;16.40;99.90;;;;;;5058726;28;20044;-57
2023/06/30 06:26:01;;;;;;;7.93;2.65;;;16.50;99.90;;;;;;5056907;28;20045;-55
2023/06/30 06:28:27;;;;;;;9.05;2.35;;;16.40;99.90;;;;;;5058318;28;20044;-56
2023/06/30 06:30:53;;;;;;;9.88;2.47;;;16.40;99.90;;;;;;5058235;28;20095;-57
2023/06/30 06:33:18;;;;;;;10.30;2.03;;;16.40;99.90;;;;;;5062380;28;20049;-57
2023/06/30 06:35:44;;;;;;;8.93;2.30;;;16.50;99.90;;;;;;5069145;28;20045;-56
2023/06/30 06:38:10;;;;;;;10.45;3.25;;;16.60;99.90;;;;;;5055251;28;20041;-57
2023/06/30 06:40:35;;;;;;;8.60;2.30;;;16.60;99.90;;;;;;5058394;28;20072;-56
2023/06/30 06:43:01;;;;;;;8.50;2.08;;;16.60;99.90;;;;;;5056866;28;20056;-56
2023/06/30 06:45:27;;;;;;;9.82;2.10;;;16.60;99.90;;;;;;5057980;28;20135;-56
2023/06/30 06:48:19;;;;;;;7.45;2.38;;;16.70;99.90;;;;;;5064692;28;20676;-56
2023/06/30 06:50:52;;;;;;;7.70;2.70;;;16.50;99.90;;;;;;5061825;28;20033;-55
2023/06/30 06:53:23;;;;;;;7.35;2.97;;;16.70;99.90;;;;;;5066566;28;20123;-56
2023/06/30 06:55:50;;;;;;;7.15;2.42;;;16.70;99.90;;;;;;5067806;28;20055;-56
2023/06/30 06:58:16;;;;;;;6.25;1.92;;;16.60;99.90;;;;;;5068412;28;20079;-55
2023/06/30 07:00:44;;;;;;;4.60;1.60;;;16.50;99.90;;;;;;5059763;28;20041;-52
2023/06/30 07:03:10;;;;;;;8.70;1.83;;;16.50;99.90;;;;;;5067371;28;20056;-55
2023/06/30 07:05:36;;;;;;;5.53;1.80;;;16.60;99.90;;;;;;5063856;28;20717;-55
2023/06/30 07:08:01;;;;;;;8.77;2.20;;;16.80;99.90;;;;;;5061352;28;20037;-56
2023/06/30 07:10:29;;;;;;;8.73;2.70;;;16.70;99.90;;;;;;5061678;28;20041;-56
2023/06/30 07:12:55;;;;;;;6.90;2.05;;;16.80;99.90;;;;;;5062557;28;20051;-56
2023/06/30 07:15:20;;;;;;;9.18;2.00;;;16.90;99.90;;;;;;5075111;28;20139;-57
2023/06/30 07:17:46;;;;;;;6.22;1.90;;;16.80;99.90;;;;;;5076547;28;20044;-55
2023/06/30 07:20:12;;;;;;;8.23;2.78;;;16.90;99.90;;;;;;5076460;28;20043;-56
2023/06/30 07:22:38;;;;;;;8.40;1.83;;;17.00;99.90;;;;;;5077358;28;20040;-55
2023/06/30 07:25:06;;;;;;;7.00;1.90;;;17.40;99.90;;;;;;5075804;28;20458;-56
2023/06/30 07:27:32;;;;;;;6.22;1.90;;;17.10;99.90;;;;;;5077322;28;20515;-57
2023/06/30 07:29:57;;;;;;;8.20;1.95;;;17.20;99.90;;;;;;5075840;28;20064;-56
2023/06/30 07:32:23;;;;;;;6.10;1.98;;;16.90;99.90;;;;;;5077379;28;20091;-56
2023/06/30 07:34:49;;;;;;;8.98;2.25;;;16.60;99.90;;;;;;5067130;28;20109;-56
2023/06/30 07:37:17;;;;;;;6.65;1.85;;;16.40;99.90;;;;;;5057730;28;20521;-55
2023/06/30 07:39:43;;;;;;;6.78;1.80;;;16.50;99.90;;;;;;5057180;28;20040;-56
2023/06/30 07:42:08;;;;;;;7.55;2.00;;;16.80;99.90;;;;;;5061377;28;20099;-56
2023/06/30 07:44:34;;;;;;;10.82;2.10;;;17.10;99.90;;;;;;5064120;28;20050;-56
2023/06/30 07:47:00;;;;;;;9.68;2.03;;;17.00;99.90;;;;;;5074679;28;20045;-56
2023/06/30 07:49:26;;;;;;;7.95;1.60;;;16.90;99.90;;;;;;5056860;28;20063;-56
2023/06/30 07:51:52;;;;;;;6.32;1.67;;;17.10;99.90;;;;;;5070320;28;20040;-55
2023/06/30 07:54:17;;;;;;;6.80;2.10;;;17.20;99.90;;;;;;5076632;28;20355;-56
2023/06/30 07:56:46;;;;;;;8.07;1.77;;;17.40;99.90;;;;;;5076802;28;20115;-55
2023/06/30 07:59:11;;;;;;;6.38;1.60;;;17.40;99.90;;;;;;5073416;28;20044;-55
2023/06/30 08:01:37;;;;;;;8.23;1.73;;;17.50;99.90;;;;;;5076342;28;20102;-56
2023/06/30 08:04:03;;;;;;;8.07;1.80;;;17.70;99.90;;;;;;5075128;28;20079;-56
2023/06/30 08:06:28;;;;;;;7.03;2.17;;;17.80;99.90;;;;;;5075103;28;20040;-55
2023/06/30 08:08:54;;;;;;;6.95;2.47;;;17.80;99.90;;;;;;5075607;28;20103;-56
2023/06/30 08:11:20;;;;;;;7.72;1.85;;;17.90;99.90;;;;;;5071725;28;20397;-57
2023/06/30 08:13:45;;;;;;;7.50;1.42;;;17.80;99.90;;;;;;5064884;28;20055;-55
2023/06/30 08:16:15;;;;;;;5.18;1.58;;;17.80;99.90;;;;;;5069287;28;20059;-55
2023/06/30 08:18:41;;;;;;;6.57;2.33;;;17.80;99.90;;;;;;5064559;28;20045;-56
2023/06/30 08:21:06;;;;;;;8.80;2.50;;;17.80;99.90;;;;;;5052513;28;20041;-56
2023/06/30 08:23:32;;;;;;;5.90;1.67;;;17.70;99.90;;;;;;5066668;28;20048;-56
2023/06/30 08:25:58;;;;;;;6.93;1.55;;;17.50;99.90;;;;;;5061384;28;20084;-56
2023/06/30 08:28:23;;;;;;;7.30;1.88;;;17.20;99.90;;;;;;5062640;28;20037;-56
2023/06/30 08:30:50;;;;;;;5.03;1.30;;;17.30;99.90;;;;;;5064151;28;20068;-56
2023/06/30 08:33:16;;;;;;;6.80;1.55;;;17.60;99.90;;;;;;5065848;28;20404;-56
2023/06/30 08:35:41;;;;;;;7.90;1.88;;;18.00;99.90;;;;;;5064559;28;20055;-56
2023/06/30 08:38:07;;;;;;;5.40;1.63;;;18.20;99.90;;;;;;5063775;28;20037;-56
2023/06/30 08:40:33;;;;;;;7.25;1.58;;;17.60;99.90;;;;;;5065160;28;20067;-55
2023/06/30 08:43:01;;;;;;;4.80;1.38;;;17.40;99.90;;;;;;5061020;28;20036;-57
2023/06/30 08:45:29;;;;;;;7.10;1.40;;;17.50;99.90;;;;;;5066723;28;20056;-57
2023/06/30 08:48:04;;;;;;;4.25;1.42;;;17.90;99.90;;;;;;5066205;28;20053;-53
2023/06/30 08:50:34;;;;;;;6.78;1.67;;;18.00;99.90;;;;;;5068974;28;20092;-56
2023/06/30 08:53:00;;;;;;;7.88;1.90;;;18.20;99.90;;;;;;5062499;28;20044;-57
2023/06/30 08:55:26;;;;;;;6.93;1.55;;;17.70;99.90;;;;;;5067324;28;20045;-56
2023/06/30 08:57:56;;;;;;;11.18;1.90;;;17.60;99.90;;;;;;5059149;28;20041;-56
2023/06/30 09:00:25;;;;;;;11.27;1.80;;;17.80;99.90;;;;;;5060375;28;20036;-56
2023/06/30 09:02:53;;;;;;;5.82;1.38;;;18.30;99.90;;;;;;5063038;28;20060;-54
2023/06/30 09:05:27;;;;;;;4.78;1.40;;;18.60;99.90;;;;;;5062303;28;20045;-55
2023/06/30 09:07:56;;;;;;;5.03;1.27;;;18.20;99.90;;;;;;5064897;28;20499;-56
2023/06/30 09:10:33;;;;;;;4.25;1.45;;;17.90;99.90;;;;;;5064956;28;20063;-56
2023/06/30 09:13:01;;;;;;;5.75;1.50;;;17.70;99.90;;;;;;5065645;28;20032;-55
2023/06/30 09:15:26;;;;;;;4.82;1.58;;;18.00;99.90;;;;;;5062276;28;21015;-55
2023/06/30 09:17:53;;;;;;;5.57;1.60;;;18.40;99.90;;;;;;5063787;28;20068;-56
2023/06/30 09:20:21;;;;;;;4.25;1.30;;;18.70;99.90;;;;;;5065934;28;20048;-55
2023/06/30 09:22:47;;;;;;;6.05;1.45;;;18.80;99.90;;;;;;5063901;28;20547;-56
2023/06/30 09:25:25;;;;;;;5.15;1.55;;;18.90;99.90;;;;;;5059509;28;20045;-56
2023/06/30 09:27:52;;;;;;;5.50;1.40;;;18.40;99.90;;;;;;5063214;28;20143;-56
2023/06/30 09:30:18;;;;;;;5.82;1.58;;;18.40;99.90;;;;;;5062551;28;20049;-55
2023/06/30 09:32:43;;;;;;;5.47;1.52;;;19.00;99.90;;;;;;5065165;28;20037;-56
2023/06/30 09:35:15;;;;;;;7.72;1.60;;;19.20;99.90;;;;;;5064717;28;20055;-55
2023/06/30 09:37:42;;;;;;;5.97;1.70;;;18.80;99.90;;;;;;5063687;28;20051;-56
2023/06/30 09:40:13;;;;;;;6.20;1.45;;;18.70;99.90;;;;;;5053744;28;20037;-56
2023/06/30 09:42:43;;;;;;;6.10;1.35;;;18.90;99.90;;;;;;5053764;28;20785;-56
2023/06/30 09:45:10;;;;;;;7.82;1.60;;;19.10;99.90;;;;;;5056634;28;20134;-57
2023/06/30 09:47:36;;;;;;;5.57;1.50;;;19.30;99.90;;;;;;5065471;28;20105;-54
2023/06/30 09:50:02;;;;;;;3.97;1.30;;;19.10;99.90;;;;;;5054616;28;20076;-56
2023/06/30 09:52:31;;;;;;;6.03;1.70;;;18.80;99.90;;;;;;5054858;28;20034;-56
2023/06/30 09:54:57;;;;;;;3.65;1.15;;;18.70;99.90;;;;;;5054940;28;20044;-56
2023/06/30 09:57:27;;;;;;;4.65;1.50;;;18.90;99.90;;;;;;5065158;28;20040;-56
2023/06/30 09:59:53;;;;;;;5.15;1.30;;;19.30;99.90;;;;;;5065932;28;20074;-57
2023/06/30 10:02:18;;;;;;;6.63;1.50;;;19.40;99.90;;;;;;5068818;28;20053;-56
2023/06/30 10:04:44;;;;;;;4.18;1.38;;;19.30;99.20;;;;;;5067577;28;20118;-55
2023/06/30 10:07:13;;;;;;;6.10;1.65;;;19.10;99.90;;;;;;5068612;28;20056;-56
2023/06/30 10:09:42;;;;;;;4.03;1.30;;;19.20;99.90;;;;;;5068977;28;20053;-56
2023/06/30 10:12:09;;;;;;;5.72;1.40;;;19.30;99.90;;;;;;5067448;28;20138;-56
2023/06/30 10:14:36;;;;;;;5.40;1.40;;;19.20;98.50;;;;;;5059313;28;20055;-56
2023/06/30 10:17:04;;;;;;;5.40;1.20;;;19.60;99.60;;;;;;5067251;28;20043;-55
2023/06/30 10:19:30;;;;;;;5.90;1.65;;;19.60;99.80;;;;;;5058358;28;20051;-56
2023/06/30 10:21:56;;;;;;;5.90;2.03;;;19.20;99.10;;;;;;5076952;28;20424;-55
2023/06/30 10:24:27;;;;;;;6.53;1.52;;;19.20;99.90;;;;;;5069827;28;20048;-56
2023/06/30 10:26:58;;;;;;;4.68;1.90;;;19.50;99.90;;;;;;5075773;28;20036;-56
2023/06/30 10:29:24;;;;;;;6.15;1.25;;;19.40;99.80;;;;;;5076320;28;20542;-56
2023/06/30 10:31:50;;;;;;;4.88;1.25;;;19.20;97.50;;;;;;5075288;28;20069;-56
2023/06/30 10:34:17;;;;;;;3.15;1.10;;;19.70;95.80;;;;;;5067630;28;20066;-56
2023/06/30 10:36:43;;;;;;;5.22;1.65;;;19.70;95.70;;;;;;5057554;28;20048;-56
2023/06/30 10:39:10;;;;;;;5.35;2.08;;;20.10;96.30;;;;;;5060395;28;20041;-55
2023/06/30 10:41:49;;;;;;;5.53;1.52;;;19.80;96.70;;;;;;5060572;28;20041;-55
2023/06/30 10:44:18;;;;;;;5.82;1.95;;;19.70;97.50;;;;;;5069590;28;20043;-56
2023/06/30 10:46:51;;;;;;;9.07;2.65;;;19.40;98.60;;;;;;5080037;28;20045;-57
2023/06/30 10:49:35;;;;;;;4.97;1.75;;;19.20;99.30;;;;;;5081652;28;20051;-56
2023/06/30 10:52:04;;;;;;;5.80;1.80;;;19.50;99.90;;;;;;5080678;28;20053;-56
2023/06/30 10:54:36;;;;;;;5.07;1.70;;;20.10;99.90;;;;;;5080802;28;20053;-56
2023/06/30 10:57:09;;;;;;;5.88;2.00;;;20.40;99.40;;;;;;5081643;28;20052;-56
2023/06/30 10:59:45;;;;;;;7.68;1.85;;;20.20;97.50;;;;;;5079887;28;20040;-57
2023/06/30 11:02:16;;;;;;;5.22;1.63;;;20.00;97.60;;;;;;5081240;28;20044;-55
2023/06/30 11:04:44;;;;;;;5.88;1.90;;;20.00;96.80;;;;;;5066507;28;20067;-55
2023/06/30 11:07:11;;;;;;;6.85;1.70;;;19.80;97.00;;;;;;5060702;28;20033;-55
2023/06/30 11:09:48;;;;;;;5.07;1.50;;;19.60;95.60;;;;;;5060680;28;20079;-54
2023/06/30 11:12:51;;;;;;;5.15;2.03;;;19.70;97.60;;;;;;5059704;28;20044;-56
2023/06/30 11:15:28;;;;;;;5.93;1.80;;;19.50;97.40;;;;;;5058530;28;20096;-56
2023/06/30 11:17:54;;;;;;;6.03;1.77;;;19.40;97.60;;;;;;5066845;28;20060;-56
2023/06/30 11:20:26;;;;;;;5.78;1.80;;;19.30;97.50;;;;;;5056160;28;20469;-56
2023/06/30 11:22:55;;;;;;;;;;;19.50;96.80;;;;;;5070479;28;20071;-56
2023/06/30 11:25:21;;;;;;;7.95;1.75;;;20.10;97.70;;;;;;5074793;28;19928;-56
2023/06/30 11:27:47;;;;;;;7.40;1.80;;;20.40;93.70;;;;;;5070534;28;20055;-55
2023/06/30 11:30:18;;;;;;;7.40;1.60;;;20.80;95.60;;;;;;5072608;28;20073;-55
2023/06/30 11:32:45;;;;;;;5.77;1.63;;;21.00;94.40;;;;;;5062897;28;20075;-57
2023/06/30 11:35:17;;;;;;;9.20;1.92;;;21.30;95.10;;;;;;5064843;28;20059;-53
2023/06/30 11:37:50;;;;;;;6.80;1.60;;;21.40;96.60;;;;;;5064321;28;20049;-55
2023/06/30 11:40:16;;;;;;;5.15;1.48;;;20.80;94.50;;;;;;5065730;28;20048;-56
2023/06/30 11:42:42;;;;;;;3.85;1.35;;;20.50;95.30;;;;;;5063549;28;20045;-56
2023/06/30 11:45:08;;;;;;;5.35;1.50;;;20.30;96.00;;;;;;5067002;28;20075;-56
2023/06/30 11:47:46;;;;;;;4.15;1.38;;;20.30;95.00;;;;;;5066596;28;20108;-55
2023/06/30 11:50:12;;;;;;;5.82;1.60;;;20.30;94.30;;;;;;5064446;28;20049;-56
2023/06/30 11:52:39;;;;;;;9.38;2.85;;;20.50;95.80;;;;;;5066187;28;20068;-55
2023/06/30 11:55:09;;;;;;;8.80;1.98;;;20.50;95.00;;;;;;5065941;28;20079;-54
2023/06/30 11:57:36;;;;;;;8.15;1.92;;;20.80;93.60;;;;;;5066378;28;20044;-56
2023/06/30 12:00:22;;;;;;;4.55;1.90;;;20.70;94.30;;;;;;5064297;28;20036;-56
2023/06/30 12:02:48;;;;;;;7.05;1.70;;;20.30;94.00;;;;;;5063112;28;20140;-56
2023/06/30 12:05:17;;;;;;;5.82;1.70;;;20.40;94.00;;;;;;5066356;28;20070;-55
2023/06/30 12:07:44;;;;;;;5.13;1.60;;;20.60;91.30;;;;;;5065544;28;20045;-56
2023/06/30 12:10:11;;;;;;;4.85;1.70;;;20.90;92.30;;;;;;5065607;28;20048;-56
2023/06/30 12:12:37;;;;;;;6.60;1.65;;;21.00;93.30;;;;;;5064593;28;20515;-56
2023/06/30 12:15:05;;;;;;;5.90;1.80;;;20.30;93.30;;;;;;5063921;28;20049;-56
2023/06/30 12:17:42;;;;;;;5.75;1.35;;;20.10;94.50;;;;;;5066007;28;20755;-54
2023/06/30 12:20:11;;;;;;;5.55;1.73;;;20.40;93.90;;;;;;5054442;28;20055;-56
2023/06/30 12:22:44;;;;;;;6.28;2.25;;;20.80;93.90;;;;;;5054205;28;20036;-56
2023/06/30 12:25:11;;;;;;;6.88;1.63;;;20.60;93.10;;;;;;5064027;28;20044;-55
2023/06/30 12:27:43;;;;;;;6.78;1.80;;;20.40;93.60;;;;;;5067008;28;20109;-54
2023/06/30 12:30:19;;;;;;;5.57;1.52;;;20.70;94.30;;;;;;5061562;28;20040;-57
2023/06/30 12:32:45;;;;;;;5.70;1.95;;;20.70;93.90;;;;;;5063044;28;20055;-55
2023/06/30 12:35:12;;;;;;;7.43;2.20;;;20.80;94.60;;;;;;5073983;28;20090;-57
2023/06/30 12:37:38;;;;;;;8.30;2.25;;;21.10;95.40;;;;;;5063528;28;20079;-57
2023/06/30 12:40:06;;;;;;;4.50;1.90;;;20.60;95.10;;;;;;5068872;28;20088;-57
2023/06/30 12:42:32;;;;;;;7.47;2.00;;;20.90;93.90;;;;;;5067406;28;20045;-57
2023/06/30 12:44:58;;;;;;;7.38;2.00;;;21.20;94.00;;;;;;5068514;28;20072;-57